createdAt,value
2024-03-20T00:07:12.712Z,13.44
2024-03-20T00:17:22.285Z,11.68
2024-03-20T00:27:31.933Z,15.96
2024-03-20T00:37:41.609Z,15.6
2024-03-20T00:47:51.268Z,17.63
2024-03-20T01:07:56.539Z,16.29
2024-03-20T01:18:07.652Z,23.52
2024-03-20T01:38:09.559Z,19
2024-03-20T01:48:19.120Z,18.47
2024-03-20T01:58:28.742Z,21.08
2024-03-20T02:08:38.254Z,20.82
2024-03-20T02:18:47.806Z,20.64
2024-03-20T02:28:57.540Z,22.02
2024-03-20T02:39:07.154Z,18.35
2024-03-20T02:49:16.776Z,19.96
2024-03-20T02:59:29.006Z,18.73
2024-03-20T03:09:28.787Z,17.7
2024-03-20T03:19:38.432Z,21.44
2024-03-20T03:29:48.174Z,19.04
2024-03-20T03:39:57.863Z,19.42
2024-03-20T03:50:07.502Z,19.04
2024-03-20T04:00:17.266Z,21.22
2024-03-20T04:10:26.767Z,22.34
2024-03-20T04:20:36.589Z,18.88
2024-03-20T04:30:46.138Z,20.23
2024-03-20T04:40:55.725Z,21.25
2024-03-20T04:51:05.305Z,18.61
2024-03-20T05:01:14.864Z,18.59
2024-03-20T05:11:24.497Z,18.31
2024-03-20T05:21:34.098Z,16.57
2024-03-20T05:31:43.637Z,16.84
2024-03-20T05:41:53.152Z,19.33
2024-03-20T05:52:02.749Z,21.1
2024-03-20T06:02:11.921Z,27.18
2024-03-20T06:12:21.405Z,19.04
2024-03-20T06:22:31.056Z,21.32
2024-03-20T06:32:40.129Z,33.95
2024-03-20T06:42:49.756Z,30.7
2024-03-20T06:53:01.987Z,23.86
2024-03-20T07:13:04.335Z,30.35
2024-03-20T07:23:03.973Z,25.27
2024-03-20T07:33:16.743Z,24.43
2024-03-20T07:43:16.512Z,30.31
2024-03-20T07:53:28.269Z,37.66
2024-03-20T08:03:27.935Z,31.84
2024-03-20T08:13:40.085Z,29.35
2024-03-20T08:23:38.687Z,24.48
2024-03-20T08:33:53.968Z,23.61
2024-03-20T08:44:02.628Z,20.66
2024-03-20T08:54:02.556Z,21.56
2024-03-20T09:04:12.225Z,15.17
2024-03-20T09:14:21.795Z,8.36
2024-03-20T09:24:36.278Z,8.7
2024-03-20T09:34:36.939Z,6.11
2024-03-20T09:44:44.978Z,6.56
2024-03-20T09:54:46.324Z,5.86
2024-03-20T10:04:52.407Z,10.91
2024-03-20T10:14:51.458Z,5.94
2024-03-20T10:24:53.455Z,5.95
2024-03-20T10:35:03.993Z,5.49
2024-03-20T10:45:12.397Z,5.66
2024-03-20T10:55:24.841Z,3.69
2024-03-20T11:05:27.509Z,3.42
2024-03-20T11:15:27.483Z,4.07
2024-03-20T11:25:27.209Z,5.88
2024-03-20T11:35:37.532Z,4.93
2024-03-20T11:45:37.499Z,3.74
2024-03-20T11:55:47.132Z,3.78
2024-03-20T12:05:57.183Z,3.84
2024-03-20T12:16:06.889Z,5.04
2024-03-20T12:26:16.505Z,5.2
2024-03-20T12:36:26.010Z,5.68
2024-03-20T12:46:39.191Z,4.16
2024-03-20T12:56:40.596Z,3.87
2024-03-20T13:06:53.079Z,5.05
2024-03-20T13:16:56.739Z,8.57
2024-03-20T13:26:55.185Z,7.1
2024-03-20T13:37:08.578Z,6.07
2024-03-20T13:47:12.146Z,8.69
2024-03-20T13:57:11.702Z,5.3
2024-03-20T14:07:23.171Z,7
2024-03-20T14:17:23.974Z,5.06
2024-03-20T14:27:28.540Z,4.02
2024-03-20T14:37:29.350Z,6.98
2024-03-20T14:47:29.409Z,8.5
2024-03-20T14:57:29.273Z,6.1
2024-03-20T15:07:41.316Z,7.84
2024-03-20T15:17:41.081Z,8.12
2024-03-20T15:27:40.914Z,9.78
2024-03-20T15:37:53.196Z,6.61
2024-03-20T15:47:52.848Z,6.73
2024-03-20T15:58:02.508Z,10.72
2024-03-20T16:08:12.069Z,9.52
2024-03-20T16:18:21.865Z,13.3
2024-03-20T16:28:31.456Z,14.45
2024-03-20T16:38:41.194Z,8.3
2024-03-20T16:48:50.777Z,11.75
2024-03-20T16:59:00.423Z,13.91
2024-03-20T17:09:10.078Z,12.68
2024-03-20T17:19:19.943Z,12.26
2024-03-20T17:29:19.721Z,10.7
2024-03-20T17:39:29.342Z,12.15
2024-03-20T17:49:40.093Z,9.57
2024-03-20T17:59:39.947Z,10.72
2024-03-20T18:09:51.429Z,10.52
2024-03-20T18:19:53.505Z,13.28
2024-03-20T18:29:54.033Z,13.81
2024-03-20T18:39:55.870Z,14.83
2024-03-20T18:49:57.888Z,12.09
2024-03-20T19:00:10.965Z,11.12
2024-03-20T19:10:17.367Z,12.06
2024-03-20T19:20:19.125Z,11.1
2024-03-20T19:30:21.696Z,13.89
2024-03-20T19:40:25.091Z,13.57
2024-03-20T19:50:36.167Z,15.02
2024-03-20T20:00:44.597Z,11.36
2024-03-20T20:10:45.602Z,13.84
2024-03-20T20:20:40.043Z,12.79
2024-03-20T20:30:43.355Z,11.77
2024-03-20T20:40:48.341Z,14.11
2024-03-20T20:50:47.992Z,12.94
2024-03-20T21:00:49.390Z,11.03
2024-03-20T21:10:52.611Z,12.36
2024-03-20T21:20:52.163Z,12.33
2024-03-20T21:31:01.717Z,13.37
2024-03-20T21:41:11.389Z,12.44
2024-03-20T21:51:21.049Z,10.06
2024-03-20T22:01:30.720Z,7.9
2024-03-20T22:11:40.342Z,11.89
2024-03-20T22:21:50.054Z,14.22
2024-03-20T22:31:59.630Z,13.78
2024-03-20T22:42:09.285Z,13.34
2024-03-20T22:52:19.979Z,14.77
2024-03-20T23:02:19.366Z,15.5
2024-03-20T23:12:39.363Z,13.9
2024-03-20T23:22:40.290Z,14.68
2024-03-20T23:32:41.594Z,13.77
2024-03-20T23:42:47.264Z,9.93
2024-03-20T23:52:51.938Z,11.87
